Time;durP1;ratioP1;P1;durP2;ratioP2;P2;SDS_P1;SDS_P2;PMS_P1;PMS_P2;Temp;Humidity;BMP_temperature;BMP_pressure;BME280_temperature;BME280_humidity;BME280_pressure;Samples;Min_cycle;Max_cycle;Signal;HPM_P1;HPM_P2
2021/10/10 00:00:51;;;;;;;0.10;0.10;;;;;;;;;;4866910;29;20103;-92
2021/10/10 00:03:17;;;;;;;0.10;0.10;;;;;;;;;;4866821;29;20488;-90
2021/10/10 00:05:43;;;;;;;0.15;0.15;;;;;;;;;;4881648;29;20048;-90
2021/10/10 00:08:09;;;;;;;0.10;0.10;;;;;;;;;;4881516;29;20096;-90
2021/10/10 00:10:35;;;;;;;0.10;0.10;;;;;;;;;;4881259;29;20049;-89
2021/10/10 00:13:01;;;;;;;0.10;0.10;;;;;;;;;;4866442;29;20060;-89
2021/10/10 00:15:27;;;;;;;0.10;0.10;;;;;;;;;;4866210;29;20045;-90
2021/10/10 00:17:53;;;;;;;0.40;0.40;;;;;;;;;;4866502;29;20045;-91
2021/10/10 00:20:19;;;;;;;0.10;0.10;;;;;;;;;;4866499;29;20055;-90
2021/10/10 00:22:45;;;;;;;0.10;0.10;;;;;;;;;;4866004;29;20049;-90
2021/10/10 00:25:11;;;;;;;0.10;0.10;;;;;;;;;;4865654;29;20203;-89
2021/10/10 00:27:37;;;;;;;0.35;0.35;;;;;;;;;;4850516;29;20063;-89
2021/10/10 00:30:07;;;;;;;0.10;0.10;;;;;;;;;;4865905;29;20416;-89
2021/10/10 00:32:33;;;;;;;0.10;0.10;;;;;;;;;;4881193;29;20045;-89
2021/10/10 00:34:59;;;;;;;0.10;0.10;;;;;;;;;;4865575;29;20499;-90
2021/10/10 00:37:25;;;;;;;0.10;0.10;;;;;;;;;;4865982;29;20052;-90
2021/10/10 00:39:51;;;;;;;0.10;0.10;;;;;;;;;;4865527;29;20457;-90
2021/10/10 00:42:17;;;;;;;0.15;0.15;;;;;;;;;;4881317;29;20100;-90
2021/10/10 00:44:43;;;;;;;0.10;0.10;;;;;;;;;;4865702;29;20058;-91
2021/10/10 00:47:10;;;;;;;0.10;0.10;;;;;;;;;;4881187;29;20052;-90
2021/10/10 00:49:36;;;;;;;0.10;0.10;;;;;;;;;;4865879;29;20055;-89
2021/10/10 00:52:03;;;;;;;0.30;0.30;;;;;;;;;;4881174;29;20045;-89
2021/10/10 00:54:29;;;;;;;0.10;0.10;;;;;;;;;;4865503;29;20044;-89
2021/10/10 00:56:55;;;;;;;0.10;0.10;;;;;;;;;;4880783;29;20044;-90
2021/10/10 00:59:22;;;;;;;0.10;0.10;;;;;;;;;;4865670;29;20049;-89
2021/10/10 01:01:49;;;;;;;0.10;0.10;;;;;;;;;;4865782;29;20497;-89
2021/10/10 01:04:15;;;;;;;0.10;0.10;;;;;;;;;;4865151;29;20501;-90
2021/10/10 01:06:41;;;;;;;0.10;0.10;;;;;;;;;;4850166;29;20047;-90
2021/10/10 01:09:07;;;;;;;0.10;0.10;;;;;;;;;;4880874;29;20044;-89
2021/10/10 01:11:33;;;;;;;0.20;0.17;;;;;;;;;;4880597;29;20045;-90
2021/10/10 01:13:59;;;;;;;0.22;0.22;;;;;;;;;;4849696;29;20036;-90
2021/10/10 01:16:25;;;;;;;0.10;0.10;;;;;;;;;;4864953;29;20045;-90
2021/10/10 01:18:51;;;;;;;0.10;0.10;;;;;;;;;;4864972;29;20064;-90
2021/10/10 01:21:20;;;;;;;0.10;0.10;;;;;;;;;;4865342;29;20047;-89
2021/10/10 01:23:46;;;;;;;0.10;0.10;;;;;;;;;;4850087;29;20051;-90
2021/10/10 01:26:12;;;;;;;0.10;0.10;;;;;;;;;;4849414;29;20341;-90
2021/10/10 01:28:38;;;;;;;0.10;0.10;;;;;;;;;;4849999;29;20059;-91
2021/10/10 01:31:04;;;;;;;0.10;0.10;;;;;;;;;;4865378;29;20052;-90
2021/10/10 01:33:30;;;;;;;0.10;0.10;;;;;;;;;;4865414;29;20040;-90
2021/10/10 01:35:55;;;;;;;0.10;0.10;;;;;;;;;;4868791;29;20523;-90
2021/10/10 01:38:21;;;;;;;0.10;0.10;;;;;;;;;;4884725;29;20047;-90
2021/10/10 01:40:47;;;;;;;0.10;0.10;;;;;;;;;;4869004;29;20091;-90
2021/10/10 01:43:13;;;;;;;0.10;0.10;;;;;;;;;;4884203;29;20099;-89
2021/10/10 01:45:39;;;;;;;0.10;0.10;;;;;;;;;;4853470;29;20059;-89
2021/10/10 01:48:05;;;;;;;0.10;0.10;;;;;;;;;;4868590;29;20408;-90
2021/10/10 01:50:35;;;;;;;0.10;0.10;;;;;;;;;;4868758;29;20044;-91
2021/10/10 01:53:01;;;;;;;0.10;0.10;;;;;;;;;;4884284;29;20045;-90
2021/10/10 01:55:27;;;;;;;0.10;0.10;;;;;;;;;;4884106;29;20397;-91
2021/10/10 01:57:53;;;;;;;0.10;0.10;;;;;;;;;;4869099;29;20040;-91
2021/10/10 02:00:19;;;;;;;0.10;0.10;;;;;;;;;;4868588;29;20055;-91
2021/10/10 02:02:45;;;;;;;0.25;0.25;;;;;;;;;;4900655;29;20144;-91
2021/10/10 02:05:11;;;;;;;0.10;0.10;;;;;;;;;;4853694;29;20404;-90
2021/10/10 02:07:37;;;;;;;0.10;0.10;;;;;;;;;;4883791;29;20445;-90
2021/10/10 02:10:04;;;;;;;0.10;0.10;;;;;;;;;;4868284;29;20083;-90
2021/10/10 02:12:30;;;;;;;0.10;0.10;;;;;;;;;;4868644;29;20403;-90
2021/10/10 02:14:56;;;;;;;0.20;0.20;;;;;;;;;;4868612;29;20127;-90
2021/10/10 02:17:22;;;;;;;0.10;0.10;;;;;;;;;;4883850;29;20080;-91
2021/10/10 02:19:47;;;;;;;0.30;0.30;;;;;;;;;;4852867;29;20095;-91
2021/10/10 02:22:13;;;;;;;0.10;0.10;;;;;;;;;;4853460;29;20049;-90
2021/10/10 02:24:39;;;;;;;0.10;0.10;;;;;;;;;;4868145;29;20044;-90
2021/10/10 02:27:05;;;;;;;0.10;0.10;;;;;;;;;;4883524;29;20057;-90
2021/10/10 02:29:31;;;;;;;0.10;0.10;;;;;;;;;;4883858;29;20188;-92
2021/10/10 02:31:58;;;;;;;0.10;0.10;;;;;;;;;;4868209;29;20051;-90
2021/10/10 02:34:24;;;;;;;0.10;0.10;;;;;;;;;;4868351;29;20113;-90
2021/10/10 02:36:50;;;;;;;0.20;0.20;;;;;;;;;;4883745;29;20044;-91
2021/10/10 02:39:16;;;;;;;0.10;0.10;;;;;;;;;;4868412;29;20456;-91
2021/10/10 02:41:42;;;;;;;0.10;0.10;;;;;;;;;;4883560;29;20072;-91
2021/10/10 02:44:07;;;;;;;0.10;0.10;;;;;;;;;;4867912;29;20413;-90
2021/10/10 02:46:33;;;;;;;0.10;0.10;;;;;;;;;;4882188;29;20048;-91
2021/10/10 02:49:01;;;;;;;1.50;0.28;;;;;;;;;;4883219;29;20048;-91
2021/10/10 02:51:27;;;;;;;0.10;0.10;;;;;;;;;;4853358;29;20096;-91
2021/10/10 02:53:53;;;;;;;0.10;0.10;;;;;;;;;;4883575;29;20040;-91
2021/10/10 02:56:19;;;;;;;0.10;0.10;;;;;;;;;;4868169;29;20082;-91
2021/10/10 02:58:45;;;;;;;0.10;0.10;;;;;;;;;;4853164;29;20044;-91
2021/10/10 03:01:11;;;;;;;0.10;0.10;;;;;;;;;;4852443;29;20064;-90
2021/10/10 03:03:37;;;;;;;0.10;0.10;;;;;;;;;;4867830;29;20120;-90
2021/10/10 03:06:03;;;;;;;0.10;0.10;;;;;;;;;;4868188;29;20158;-92
2021/10/10 03:08:29;;;;;;;0.10;0.10;;;;;;;;;;4883241;29;20135;-91
2021/10/10 03:10:55;;;;;;;0.10;0.10;;;;;;;;;;4867848;29;20136;-90
2021/10/10 03:13:21;;;;;;;0.10;0.10;;;;;;;;;;4867543;29;20136;-90
2021/10/10 03:15:47;;;;;;;0.10;0.10;;;;;;;;;;4867383;29;20041;-89
2021/10/10 03:18:13;;;;;;;0.10;0.10;;;;;;;;;;4852046;29;20040;-89
2021/10/10 03:20:39;;;;;;;0.10;0.10;;;;;;;;;;4867235;29;20084;-90
2021/10/10 03:23:05;;;;;;;0.10;0.10;;;;;;;;;;4899713;29;20438;-90
2021/10/10 03:25:31;;;;;;;0.10;0.10;;;;;;;;;;4882014;29;20504;-90
2021/10/10 03:27:57;;;;;;;0.10;0.10;;;;;;;;;;4866859;29;20416;-89
2021/10/10 03:30:23;;;;;;;0.10;0.10;;;;;;;;;;4866737;29;20041;-89
2021/10/10 03:32:48;;;;;;;0.43;0.40;;;;;;;;;;4866607;29;20091;-89
2021/10/10 03:35:14;;;;;;;0.10;0.10;;;;;;;;;;4882110;29;20087;-89
2021/10/10 03:37:40;;;;;;;0.20;0.20;;;;;;;;;;4882182;29;20135;-89
2021/10/10 03:40:07;;;;;;;0.10;0.10;;;;;;;;;;4866605;29;20047;-90
2021/10/10 03:42:33;;;;;;;0.10;0.10;;;;;;;;;;4882030;29;20489;-90
2021/10/10 03:44:59;;;;;;;0.10;0.10;;;;;;;;;;4882127;29;20047;-90
2021/10/10 03:47:25;;;;;;;0.10;0.10;;;;;;;;;;4881885;29;20060;-89
2021/10/10 03:49:51;;;;;;;2.10;0.80;;;;;;;;;;4881607;29;20132;-89
2021/10/10 03:52:17;;;;;;;0.10;0.10;;;;;;;;;;4866275;29;20080;-89
2021/10/10 03:57:20;;;;;;;0.10;0.10;;;;;;;;;;4866933;29;20069;-90
2021/10/10 03:59:49;;;;;;;0.10;0.10;;;;;;;;;;4881706;29;20101;-89
2021/10/10 04:02:15;;;;;;;0.10;0.10;;;;;;;;;;4851759;29;20051;-89
2021/10/10 04:04:41;;;;;;;0.10;0.10;;;;;;;;;;4866464;29;20048;-89
2021/10/10 04:07:08;;;;;;;0.10;0.10;;;;;;;;;;4881569;29;20465;-89
2021/10/10 04:09:34;;;;;;;0.10;0.10;;;;;;;;;;4865837;29;20075;-90
2021/10/10 04:12:00;;;;;;;0.10;0.10;;;;;;;;;;4881565;29;20488;-89
2021/10/10 04:14:25;;;;;;;0.10;0.10;;;;;;;;;;4881377;29;20485;-89
2021/10/10 04:16:51;;;;;;;0.10;0.10;;;;;;;;;;4881212;29;20061;-88
2021/10/10 04:19:17;;;;;;;0.68;0.68;;;;;;;;;;4881230;29;20041;-89
2021/10/10 04:21:43;;;;;;;0.10;0.10;;;;;;;;;;4865776;29;20382;-88
2021/10/10 04:24:09;;;;;;;0.20;0.20;;;;;;;;;;4865783;29;20100;-88
2021/10/10 04:26:35;;;;;;;0.10;0.10;;;;;;;;;;4880615;29;20071;-89
2021/10/10 04:29:01;;;;;;;0.10;0.10;;;;;;;;;;4880918;29;20477;-88
2021/10/10 04:31:27;;;;;;;0.10;0.10;;;;;;;;;;4865499;29;20052;-89
2021/10/10 04:33:53;;;;;;;0.10;0.10;;;;;;;;;;4865600;29;20045;-89
2021/10/10 04:36:19;;;;;;;0.10;0.10;;;;;;;;;;4849950;29;20074;-89
2021/10/10 04:38:45;;;;;;;0.10;0.10;;;;;;;;;;4865496;29;20044;-89
2021/10/10 04:41:11;;;;;;;0.10;0.10;;;;;;;;;;4880976;29;20050;-91
2021/10/10 04:43:37;;;;;;;0.10;0.10;;;;;;;;;;4881142;29;20048;-90
2021/10/10 04:46:03;;;;;;;0.10;0.10;;;;;;;;;;4881333;29;20051;-91
2021/10/10 04:48:29;;;;;;;0.10;0.10;;;;;;;;;;4865507;29;20077;-88
2021/10/10 04:50:55;;;;;;;0.10;0.10;;;;;;;;;;4865176;29;20040;-89
2021/10/10 04:53:20;;;;;;;0.10;0.10;;;;;;;;;;4865343;29;20048;-88
2021/10/10 04:55:46;;;;;;;0.40;0.13;;;;;;;;;;4865204;29;20052;-89
2021/10/10 04:58:12;;;;;;;0.10;0.10;;;;;;;;;;4850298;29;20040;-89
2021/10/10 05:00:38;;;;;;;0.10;0.10;;;;;;;;;;4880453;29;20036;-89
2021/10/10 05:03:04;;;;;;;0.10;0.10;;;;;;;;;;4880790;29;20056;-89
2021/10/10 05:05:30;;;;;;;0.10;0.10;;;;;;;;;;4880530;29;20110;-89
2021/10/10 05:07:56;;;;;;;0.10;0.10;;;;;;;;;;4865211;29;20044;-89
2021/10/10 05:10:22;;;;;;;0.10;0.10;;;;;;;;;;4880123;29;20509;-89
2021/10/10 05:12:48;;;;;;;0.10;0.10;;;;;;;;;;4865536;29;20378;-89
2021/10/10 05:15:14;;;;;;;0.32;0.32;;;;;;;;;;4865346;29;20044;-89
2021/10/10 05:17:40;;;;;;;0.10;0.10;;;;;;;;;;4880714;29;20071;-90
2021/10/10 05:20:07;;;;;;;0.10;0.10;;;;;;;;;;4865785;29;20051;-90
2021/10/10 05:22:33;;;;;;;0.20;0.20;;;;;;;;;;4850524;29;20079;-90
2021/10/10 05:25:00;;;;;;;0.10;0.10;;;;;;;;;;4865375;29;20531;-90
2021/10/10 05:27:26;;;;;;;0.10;0.10;;;;;;;;;;4850194;29;20064;-90
2021/10/10 05:29:52;;;;;;;0.10;0.10;;;;;;;;;;4865382;29;20515;-89
2021/10/10 05:32:18;;;;;;;0.10;0.10;;;;;;;;;;4865356;29;20036;-89
2021/10/10 05:34:44;;;;;;;0.10;0.10;;;;;;;;;;4881195;29;20044;-90
2021/10/10 05:37:11;;;;;;;0.10;0.10;;;;;;;;;;4865641;29;20052;-94
2021/10/10 05:39:37;;;;;;;0.10;0.10;;;;;;;;;;4866105;29;20080;-89
2021/10/10 05:42:03;;;;;;;0.10;0.10;;;;;;;;;;4880980;29;20112;-89
2021/10/10 05:44:29;;;;;;;0.10;0.10;;;;;;;;;;4882182;29;20044;-86
2021/10/10 05:46:55;;;;;;;0.20;0.20;;;;;;;;;;4887960;29;20101;-88
2021/10/10 05:49:21;;;;;;;0.20;0.20;;;;;;;;;;4902173;29;20067;-87
2021/10/10 05:51:47;;;;;;;0.10;0.10;;;;;;;;;;4873006;29;20032;-88
2021/10/10 05:54:16;;;;;;;0.30;0.30;;;;;;;;;;4877872;29;20124;-93
2021/10/10 05:56:42;;;;;;;0.10;0.10;;;;;;;;;;4867089;29;20098;-89
2021/10/10 05:59:10;;;;;;;0.10;0.10;;;;;;;;;;4880919;29;20400;-88
2021/10/10 06:01:36;;;;;;;0.20;0.20;;;;;;;;;;4865552;29;20053;-90
2021/10/10 06:04:05;;;;;;;0.10;0.10;;;;;;;;;;4880629;29;20115;-89
2021/10/10 06:06:31;;;;;;;0.10;0.10;;;;;;;;;;4849687;29;20068;-89
2021/10/10 06:08:57;;;;;;;0.10;0.10;;;;;;;;;;4880604;29;20426;-91
2021/10/10 06:11:23;;;;;;;0.10;0.10;;;;;;;;;;4865236;29;20544;-92
2021/10/10 06:13:49;;;;;;;0.10;0.10;;;;;;;;;;4880825;29;20052;-91
2021/10/10 06:16:15;;;;;;;0.10;0.10;;;;;;;;;;4865468;29;20473;-92
2021/10/10 06:18:41;;;;;;;0.20;0.20;;;;;;;;;;4865372;29;20037;-92
2021/10/10 06:21:07;;;;;;;0.47;0.47;;;;;;;;;;4867597;29;20049;-91
2021/10/10 06:23:33;;;;;;;0.10;0.10;;;;;;;;;;4868578;29;20547;-91
2021/10/10 06:25:59;;;;;;;0.10;0.10;;;;;;;;;;4868623;29;20059;-90
2021/10/10 06:28:25;;;;;;;0.10;0.10;;;;;;;;;;4884079;29;20056;-92
2021/10/10 06:30:52;;;;;;;0.10;0.10;;;;;;;;;;4868904;29;20043;-92
2021/10/10 06:33:18;;;;;;;0.10;0.10;;;;;;;;;;4874060;29;20437;-93
2021/10/10 06:35:46;;;;;;;0.57;0.22;;;;;;;;;;4903135;29;20037;-93
2021/10/10 06:38:15;;;;;;;0.10;0.10;;;;;;;;;;4882817;29;20104;-96
2021/10/10 06:40:46;;;;;;;0.10;0.10;;;;;;;;;;4872415;29;20132;-91
2021/10/10 06:43:12;;;;;;;0.10;0.10;;;;;;;;;;4853610;29;20072;-91
2021/10/10 06:53:45;;;;;;;0.10;0.10;;;;;;;;;;5340582;23;20049;-92
2021/10/10 06:56:11;;;;;;;0.20;0.20;;;;;;;;;;5070825;23;20056;-92
2021/10/10 06:59:37;;;;;;;0.20;0.20;;;;;;;;;;4908183;29;20067;-96
2021/10/10 07:05:37;;;;;;;0.10;0.10;;;;;;;;;;4892805;23;20052;-95
2021/10/10 07:11:41;;;;;;;0.10;0.10;;;;;;;;;;5085086;23;20074;-95
2021/10/10 07:16:43;;;;;;;0.10;0.10;;;;;;;;;;4928866;23;20139;-96
2021/10/10 07:19:09;;;;;;;0.15;0.15;;;;;;;;;;4901767;29;20232;-96
2021/10/10 07:21:56;;;;;;;0.10;0.10;;;;;;;;;;4904724;29;20145;-93
2021/10/10 07:25:07;;;;;;;0.28;0.28;;;;;;;;;;5527070;23;20056;-95
2021/10/10 07:27:40;;;;;;;0.10;0.10;;;;;;;;;;4862200;29;20045;-94
2021/10/10 07:30:07;;;;;;;0.20;0.20;;;;;;;;;;4869414;29;20070;-93
2021/10/10 07:32:33;;;;;;;0.10;0.10;;;;;;;;;;4883763;29;20044;-95
2021/10/10 07:35:09;;;;;;;0.40;0.20;;;;;;;;;;4852662;29;20076;-96
2021/10/10 07:37:35;;;;;;;0.10;0.10;;;;;;;;;;5095107;23;20046;-94
2021/10/10 07:40:10;;;;;;;0.10;0.10;;;;;;;;;;4893464;29;20374;-94
2021/10/10 07:46:24;;;;;;;0.10;0.10;;;;;;;;;;4876411;29;20104;-92
2021/10/10 07:49:17;;;;;;;0.10;0.10;;;;;;;;;;5039572;23;20052;-96
2021/10/10 07:55:07;;;;;;;0.10;0.10;;;;;;;;;;5141936;23;20044;-92
2021/10/10 07:57:36;;;;;;;0.10;0.10;;;;;;;;;;4822442;29;20054;-94
2021/10/10 08:00:04;;;;;;;0.10;0.10;;;;;;;;;;4869287;29;20049;-92
2021/10/10 08:05:54;;;;;;;0.10;0.10;;;;;;;;;;5115119;23;20112;-94
2021/10/10 08:08:20;;;;;;;0.55;0.55;;;;;;;;;;4880555;29;20052;-94
2021/10/10 08:10:51;;;;;;;0.10;0.10;;;;;;;;;;4876069;29;20044;-96
2021/10/10 08:13:29;;;;;;;0.20;0.20;;;;;;;;;;4906759;29;20050;-96
2021/10/10 08:15:57;;;;;;;0.10;0.10;;;;;;;;;;4891128;29;20076;-94
2021/10/10 08:21:55;;;;;;;0.30;0.30;;;;;;;;;;4878799;29;20091;-96
2021/10/10 08:24:23;;;;;;;0.13;0.13;;;;;;;;;;4815345;29;20049;-96
2021/10/10 08:26:49;;;;;;;0.20;0.20;;;;;;;;;;4843125;29;20052;-96
2021/10/10 08:29:15;;;;;;;0.20;0.20;;;;;;;;;;4867458;29;20056;-96
2021/10/10 08:31:41;;;;;;;0.10;0.10;;;;;;;;;;4881941;29;20055;-91
2021/10/10 08:34:07;;;;;;;0.20;0.20;;;;;;;;;;4865279;29;20049;-91
2021/10/10 08:36:36;;;;;;;0.10;0.10;;;;;;;;;;4865622;29;20037;-88
2021/10/10 08:39:03;;;;;;;0.55;0.55;;;;;;;;;;4866411;29;20461;-96
2021/10/10 08:41:34;;;;;;;0.10;0.10;;;;;;;;;;4867780;29;20155;-94
2021/10/10 08:44:02;;;;;;;0.20;0.20;;;;;;;;;;4865496;29;20052;-94
2021/10/10 08:46:29;;;;;;;0.10;0.10;;;;;;;;;;4867295;29;20048;-94
2021/10/10 08:48:57;;;;;;;0.30;0.30;;;;;;;;;;4882310;29;20161;-94
2021/10/10 08:51:25;;;;;;;0.40;0.40;;;;;;;;;;4884227;29;20520;-94
2021/10/10 08:53:51;;;;;;;0.52;0.52;;;;;;;;;;4883624;29;20044;-94
2021/10/10 08:56:18;;;;;;;0.20;0.20;;;;;;;;;;4882025;29;20041;-94
2021/10/10 08:59:05;;;;;;;0.20;0.20;;;;;;;;;;4885000;29;20039;-93
2021/10/10 09:01:43;;;;;;;0.22;0.22;;;;;;;;;;4890690;29;20055;-93
2021/10/10 09:04:09;;;;;;;0.15;0.15;;;;;;;;;;4888687;29;20109;-96
2021/10/10 09:06:40;;;;;;;0.63;0.30;;;;;;;;;;4884867;29;20044;-94
2021/10/10 09:09:28;;;;;;;0.10;0.10;;;;;;;;;;4882942;29;20056;-94
2021/10/10 09:12:20;;;;;;;0.10;0.10;;;;;;;;;;4881242;29;20040;-93
2021/10/10 09:14:49;;;;;;;0.68;0.22;;;;;;;;;;4880607;29;20063;-91
2021/10/10 09:17:15;;;;;;;0.15;0.15;;;;;;;;;;4881334;29;20049;-92
2021/10/10 09:20:04;;;;;;;0.10;0.10;;;;;;;;;;4880880;29;20056;-92
2021/10/10 09:22:31;;;;;;;1.08;0.28;;;;;;;;;;4866859;29;20073;-95
2021/10/10 09:25:00;;;;;;;0.20;0.20;;;;;;;;;;4884743;29;20036;-95
2021/10/10 09:27:26;;;;;;;0.10;0.10;;;;;;;;;;4913979;23;20064;-96
2021/10/10 09:29:57;;;;;;;0.20;0.20;;;;;;;;;;4848454;29;20053;-93
2021/10/10 09:32:27;;;;;;;0.10;0.10;;;;;;;;;;4848157;29;20082;-94
2021/10/10 09:34:53;;;;;;;0.10;0.10;;;;;;;;;;4862287;29;20049;-92
2021/10/10 09:37:24;;;;;;;0.32;0.32;;;;;;;;;;4847390;29;20128;-94
2021/10/10 09:40:17;;;;;;;0.40;0.40;;;;;;;;;;4832614;29;20048;-95
2021/10/10 09:42:45;;;;;;;0.38;0.32;;;;;;;;;;4850026;29;20387;-91
2021/10/10 09:45:24;;;;;;;0.55;0.20;;;;;;;;;;4831760;29;20041;-93
2021/10/10 09:47:52;;;;;;;0.22;0.22;;;;;;;;;;4832072;29;20064;-92
2021/10/10 09:50:18;;;;;;;0.43;0.43;;;;;;;;;;4846883;29;20562;-92
2021/10/10 09:52:45;;;;;;;0.10;0.10;;;;;;;;;;4862217;29;20045;-93
2021/10/10 09:55:11;;;;;;;0.30;0.30;;;;;;;;;;4847600;29;20041;-92
2021/10/10 10:00:57;;;;;;;0.20;0.20;;;;;;;;;;5753273;23;20064;-93
2021/10/10 10:03:26;;;;;;;0.20;0.20;;;;;;;;;;4870009;29;20048;-93
2021/10/10 10:05:52;;;;;;;0.20;0.20;;;;;;;;;;4854266;29;20048;-96
2021/10/10 10:08:18;;;;;;;0.20;0.20;;;;;;;;;;4872010;29;20045;-93
2021/10/10 10:10:44;;;;;;;0.20;0.20;;;;;;;;;;4868653;29;20080;-95
2021/10/10 10:13:10;;;;;;;0.10;0.10;;;;;;;;;;4853281;29;20560;-91
2021/10/10 10:15:36;;;;;;;0.60;0.30;;;;;;;;;;4868342;29;20401;-91
2021/10/10 10:18:02;;;;;;;0.13;0.13;;;;;;;;;;4868038;29;20048;-90
2021/10/10 10:20:29;;;;;;;0.30;0.30;;;;;;;;;;4852902;29;20047;-93
2021/10/10 10:22:55;;;;;;;0.13;0.13;;;;;;;;;;4868400;29;20087;-94
2021/10/10 10:25:24;;;;;;;0.20;0.20;;;;;;;;;;4868460;29;20044;-92
2021/10/10 10:27:50;;;;;;;0.20;0.20;;;;;;;;;;4852999;29;20174;-92
2021/10/10 10:30:16;;;;;;;0.10;0.10;;;;;;;;;;4868656;29;20052;-91
2021/10/10 10:32:42;;;;;;;0.57;0.57;;;;;;;;;;4852781;29;20037;-94
2021/10/10 10:35:11;;;;;;;0.10;0.10;;;;;;;;;;4853042;29;20044;-91
2021/10/10 10:37:43;;;;;;;0.57;0.57;;;;;;;;;;4853189;29;20052;-93
2021/10/10 10:40:15;;;;;;;0.35;0.35;;;;;;;;;;4883567;29;20131;-93
2021/10/10 10:42:41;;;;;;;0.10;0.10;;;;;;;;;;4868561;29;20516;-94
2021/10/10 10:45:23;;;;;;;0.95;0.95;;;;;;;;;;4869309;29;20076;-94
2021/10/10 10:47:49;;;;;;;0.20;0.20;;;;;;;;;;4884331;29;20066;-90
2021/10/10 10:50:32;;;;;;;0.20;0.20;;;;;;;;;;4852113;29;20040;-90
2021/10/10 10:52:59;;;;;;;0.20;0.20;;;;;;;;;;4851791;29;20051;-89
2021/10/10 10:55:35;;;;;;;0.10;0.10;;;;;;;;;;4851759;29;20471;-90
2021/10/10 10:58:11;;;;;;;0.10;0.10;;;;;;;;;;4851545;29;20631;-90
2021/10/10 11:00:43;;;;;;;0.10;0.10;;;;;;;;;;4866687;29;20096;-89
2021/10/10 11:03:09;;;;;;;0.10;0.10;;;;;;;;;;4866946;29;20052;-89
2021/10/10 11:05:41;;;;;;;0.17;0.17;;;;;;;;;;4882386;29;20129;-90
2021/10/10 11:08:07;;;;;;;;;;;;;;;;;;4881842;29;20359;-90
2021/10/10 11:10:33;;;;;;;0.22;0.22;;;;;;;;;;4882069;29;19929;-90
2021/10/10 11:13:05;;;;;;;0.15;0.15;;;;;;;;;;4867120;29;20115;-90
2021/10/10 11:15:50;;;;;;;0.32;0.32;;;;;;;;;;4882350;29;20275;-90
2021/10/10 11:18:20;;;;;;;0.10;0.10;;;;;;;;;;4882324;29;20052;-90
2021/10/10 11:21:05;;;;;;;0.10;0.10;;;;;;;;;;4851595;29;20040;-90
2021/10/10 11:23:31;;;;;;;0.20;0.20;;;;;;;;;;4851421;29;20040;-90
2021/10/10 11:25:59;;;;;;;0.10;0.10;;;;;;;;;;4851121;29;20090;-91
2021/10/10 11:28:44;;;;;;;0.28;0.28;;;;;;;;;;4851651;29;20049;-90
2021/10/10 11:31:14;;;;;;;0.30;0.30;;;;;;;;;;4881860;29;20120;-89
2021/10/10 11:33:41;;;;;;;0.22;0.22;;;;;;;;;;4866885;29;20334;-90
2021/10/10 11:36:09;;;;;;;0.10;0.10;;;;;;;;;;4881847;29;20051;-89
2021/10/10 11:38:56;;;;;;;0.10;0.10;;;;;;;;;;4866590;29;20051;-89
2021/10/10 11:41:23;;;;;;;0.20;0.20;;;;;;;;;;4866756;29;20076;-89
2021/10/10 11:43:53;;;;;;;0.15;0.15;;;;;;;;;;4866504;29;20049;-90
2021/10/10 11:46:20;;;;;;;0.10;0.10;;;;;;;;;;4868298;29;20048;-89
2021/10/10 11:48:48;;;;;;;0.10;0.10;;;;;;;;;;4870054;29;20497;-90
2021/10/10 11:51:35;;;;;;;0.10;0.10;;;;;;;;;;4873065;29;20048;-88
2021/10/10 11:54:01;;;;;;;0.22;0.22;;;;;;;;;;4871628;29;20107;-88
2021/10/10 11:56:27;;;;;;;1.00;0.40;;;;;;;;;;4887246;29;20060;-89
2021/10/10 11:58:53;;;;;;;0.10;0.10;;;;;;;;;;4889339;29;20044;-90
2021/10/10 12:04:35;;;;;;;0.20;0.20;;;;;;;;;;5616424;23;20061;-96
2021/10/10 12:07:03;;;;;;;0.35;0.35;;;;;;;;;;4821168;29;20123;-96
2021/10/10 12:09:29;;;;;;;0.38;0.38;;;;;;;;;;4989499;24;20057;-96
2021/10/10 12:12:04;;;;;;;0.15;0.15;;;;;;;;;;4816686;29;20141;-95
2021/10/10 12:14:33;;;;;;;;;;;;;;;;;;4906730;23;20024;-95
2021/10/10 12:25:39;;;;;;;1.35;0.40;;;;;;;;;;5501360;23;20244;-96
2021/10/10 12:31:26;;;;;;;;;;;;;;;;;;;;;
2021/10/10 12:39:04;;;;;;;0.15;0.15;;;;;;;;;;5795160;23;20860;-93
2021/10/10 12:41:34;;;;;;;0.10;0.10;;;;;;;;;;4829700;29;20113;-96
2021/10/10 12:44:10;;;;;;;0.35;0.35;;;;;;;;;;4830059;29;20478;-94
2021/10/10 12:46:52;;;;;;;0.10;0.10;;;;;;;;;;4826503;29;20337;-95
2021/10/10 12:49:33;;;;;;;0.20;0.20;;;;;;;;;;4811507;29;20411;-93
2021/10/10 12:52:00;;;;;;;0.30;0.30;;;;;;;;;;4797215;29;20070;-95
2021/10/10 12:54:26;;;;;;;0.10;0.10;;;;;;;;;;4811896;29;20153;-94
2021/10/10 12:56:59;;;;;;;0.30;0.30;;;;;;;;;;4796102;29;20044;-93
2021/10/10 12:59:25;;;;;;;0.40;0.40;;;;;;;;;;4811562;29;20077;-96
2021/10/10 13:01:53;;;;;;;2.08;0.57;;;;;;;;;;4812103;29;20049;-96
2021/10/10 13:04:22;;;;;;;0.20;0.20;;;;;;;;;;4796657;29;20046;-96
2021/10/10 13:06:48;;;;;;;0.30;0.30;;;;;;;;;;4814858;29;20528;-96
2021/10/10 13:09:15;;;;;;;0.20;0.20;;;;;;;;;;4796299;29;20050;-95
2021/10/10 13:11:41;;;;;;;0.47;0.30;;;;;;;;;;4798124;29;20098;-96
2021/10/10 13:14:10;;;;;;;0.30;0.30;;;;;;;;;;4798806;29;20042;-94
2021/10/10 13:19:31;;;;;;;0.10;0.10;;;;;;;;;;5622376;23;20053;-95
2021/10/10 13:21:58;;;;;;;0.57;0.30;;;;;;;;;;4814517;29;20057;-95
2021/10/10 13:24:27;;;;;;;0.30;0.30;;;;;;;;;;4847684;29;20054;-96
2021/10/10 13:26:53;;;;;;;0.30;0.30;;;;;;;;;;4797371;29;20138;-93
2021/10/10 13:37:32;;;;;;;0.40;0.40;;;;;;;;;;4811652;29;20119;-91
2021/10/10 13:39:59;;;;;;;0.63;0.63;;;;;;;;;;4825904;29;20078;-88
2021/10/10 13:42:25;;;;;;;0.10;0.10;;;;;;;;;;4827000;29;20202;-95
2021/10/10 13:44:51;;;;;;;0.20;0.20;;;;;;;;;;4829115;29;20058;-94
2021/10/10 13:47:17;;;;;;;0.40;0.40;;;;;;;;;;4826273;29;20492;-95
2021/10/10 13:49:47;;;;;;;1.27;1.17;;;;;;;;;;4799687;29;20077;-95
2021/10/10 14:06:02;;;;;;;0.47;0.47;;;;;;;;;;4843228;29;20069;-92
2021/10/10 14:08:28;;;;;;;0.13;0.13;;;;;;;;;;4798350;29;20355;-91
2021/10/10 14:10:54;;;;;;;0.30;0.30;;;;;;;;;;4798429;29;20448;-93
2021/10/10 14:13:20;;;;;;;0.10;0.10;;;;;;;;;;4798187;29;20053;-92
2021/10/10 14:15:49;;;;;;;0.17;0.17;;;;;;;;;;4813096;29;20046;-92
2021/10/10 14:18:15;;;;;;;0.30;0.30;;;;;;;;;;4813758;29;20394;-92
2021/10/10 14:20:41;;;;;;;0.32;0.32;;;;;;;;;;4813783;29;20479;-94
2021/10/10 14:23:09;;;;;;;0.30;0.30;;;;;;;;;;4813732;29;20052;-95
2021/10/10 14:25:35;;;;;;;0.30;0.30;;;;;;;;;;4799339;29;20109;-94
2021/10/10 14:28:02;;;;;;;0.47;0.47;;;;;;;;;;4813790;29;20045;-93
2021/10/10 14:30:28;;;;;;;0.20;0.20;;;;;;;;;;4813429;29;20046;-91
2021/10/10 14:32:54;;;;;;;0.70;0.65;;;;;;;;;;4828053;29;20486;-91
2021/10/10 14:35:20;;;;;;;0.28;0.20;;;;;;;;;;4813271;29;20046;-92
2021/10/10 14:37:46;;;;;;;0.38;0.38;;;;;;;;;;4798390;29;20053;-92
2021/10/10 14:40:13;;;;;;;0.20;0.20;;;;;;;;;;4798234;29;20465;-89
2021/10/10 14:50:06;;;;;;;0.40;0.40;;;;;;;;;;4813654;29;20118;-94
2021/10/10 14:52:32;;;;;;;0.15;0.15;;;;;;;;;;4813132;29;20057;-93
2021/10/10 14:54:58;;;;;;;0.47;0.22;;;;;;;;;;4797463;29;20467;-91
2021/10/10 14:57:26;;;;;;;0.80;0.30;;;;;;;;;;4812470;29;20046;-90
2021/10/10 14:59:52;;;;;;;0.38;0.20;;;;;;;;;;4812374;29;20046;-93
2021/10/10 15:02:18;;;;;;;0.22;0.22;;;;;;;;;;4812780;29;20045;-92
2021/10/10 15:04:44;;;;;;;0.25;0.17;;;;;;;;;;4812541;29;20054;-91
2021/10/10 15:07:13;;;;;;;0.10;0.10;;;;;;;;;;4797813;29;20491;-92
2021/10/10 15:09:39;;;;;;;0.20;0.20;;;;;;;;;;4797567;29;20049;-89
2021/10/10 15:12:05;;;;;;;0.32;0.32;;;;;;;;;;4827175;29;20042;-90
2021/10/10 15:14:31;;;;;;;0.47;0.47;;;;;;;;;;4812044;29;20343;-90
2021/10/10 15:16:57;;;;;;;0.20;0.20;;;;;;;;;;4811991;29;20125;-90
2021/10/10 15:19:23;;;;;;;0.20;0.20;;;;;;;;;;4812911;29;20074;-91
2021/10/10 15:21:49;;;;;;;0.10;0.10;;;;;;;;;;4812454;29;20206;-94
2021/10/10 15:24:15;;;;;;;0.10;0.10;;;;;;;;;;4797355;29;20065;-91
2021/10/10 15:26:43;;;;;;;0.40;0.40;;;;;;;;;;4797460;29;20053;-90
2021/10/10 15:29:12;;;;;;;0.10;0.10;;;;;;;;;;4827807;29;20042;-93
2021/10/10 15:31:38;;;;;;;0.10;0.10;;;;;;;;;;4798159;29;20054;-93
2021/10/10 15:34:04;;;;;;;0.20;0.20;;;;;;;;;;4812960;29;20045;-93
2021/10/10 15:36:31;;;;;;;0.10;0.10;;;;;;;;;;4815595;29;20164;-89
2021/10/10 15:38:59;;;;;;;0.10;0.10;;;;;;;;;;4797805;29;20077;-94
2021/10/10 15:41:25;;;;;;;0.10;0.10;;;;;;;;;;4812599;29;20443;-95
2021/10/10 15:43:51;;;;;;;0.10;0.10;;;;;;;;;;4797335;29;20559;-91
2021/10/10 15:46:17;;;;;;;0.20;0.20;;;;;;;;;;4826689;29;20046;-89
2021/10/10 15:48:43;;;;;;;0.15;0.13;;;;;;;;;;4811696;29;20045;-90
2021/10/10 15:51:09;;;;;;;0.10;0.10;;;;;;;;;;4811422;29;20045;-92
2021/10/10 15:53:36;;;;;;;0.10;0.10;;;;;;;;;;4811220;29;20075;-89
2021/10/10 15:56:02;;;;;;;0.10;0.10;;;;;;;;;;4811401;29;20452;-90
2021/10/10 15:58:28;;;;;;;0.13;0.13;;;;;;;;;;4796819;29;20077;-93
2021/10/10 16:00:54;;;;;;;0.20;0.20;;;;;;;;;;4812497;29;20052;-90
2021/10/10 16:03:20;;;;;;;0.10;0.10;;;;;;;;;;4826950;29;20045;-91
2021/10/10 16:05:54;;;;;;;0.15;0.15;;;;;;;;;;4811278;29;20073;-94
2021/10/10 16:08:22;;;;;;;0.10;0.10;;;;;;;;;;4811240;29;20128;-90
2021/10/10 16:10:52;;;;;;;0.10;0.10;;;;;;;;;;4826754;29;20041;-91
2021/10/10 16:13:18;;;;;;;0.10;0.10;;;;;;;;;;4811769;29;20042;-92
2021/10/10 16:15:44;;;;;;;0.10;0.10;;;;;;;;;;4826714;29;20042;-91
2021/10/10 16:18:12;;;;;;;0.10;0.10;;;;;;;;;;4811968;29;20174;-92
2021/10/10 16:20:38;;;;;;;0.10;0.10;;;;;;;;;;4811897;29;20129;-92